sensor_id;sensor_type;location;lat;lon;timestamp;P1;durP1;ratioP1;P2;durP2;ratioP2
2620;SDS011;1320;48.128;11.592;2022-07-29T00:00:42;9.20;;;4.83;;
2620;SDS011;1320;48.128;11.592;2022-07-29T00:03:11;9.87;;;4.30;;
2620;SDS011;1320;48.128;11.592;2022-07-29T00:05:40;9.77;;;4.83;;
2620;SDS011;1320;48.128;11.592;2022-07-29T00:08:06;9.43;;;4.47;;
2620;SDS011;1320;48.128;11.592;2022-07-29T00:10:33;9.30;;;4.60;;
2620;SDS011;1320;48.128;11.592;2022-07-29T00:12:59;11.80;;;4.77;;
2620;SDS011;1320;48.128;11.592;2022-07-29T00:15:25;9.40;;;5.47;;
2620;SDS011;1320;48.128;11.592;2022-07-29T00:17:51;10.63;;;5.67;;
2620;SDS011;1320;48.128;11.592;2022-07-29T00:20:16;9.60;;;5.30;;
2620;SDS011;1320;48.128;11.592;2022-07-29T00:22:42;9.40;;;4.43;;
2620;SDS011;1320;48.128;11.592;2022-07-29T00:25:08;13.07;;;5.10;;
2620;SDS011;1320;48.128;11.592;2022-07-29T00:27:34;9.90;;;4.40;;
2620;SDS011;1320;48.128;11.592;2022-07-29T00:30:01;11.30;;;5.97;;
2620;SDS011;1320;48.128;11.592;2022-07-29T00:32:27;10.13;;;5.17;;
2620;SDS011;1320;48.128;11.592;2022-07-29T00:34:53;9.53;;;3.97;;
2620;SDS011;1320;48.128;11.592;2022-07-29T00:37:37;9.87;;;5.57;;
2620;SDS011;1320;48.128;11.592;2022-07-29T00:40:03;9.87;;;5.13;;
2620;SDS011;1320;48.128;11.592;2022-07-29T00:42:29;10.40;;;4.90;;
2620;SDS011;1320;48.128;11.592;2022-07-29T00:44:55;9.33;;;4.33;;
2620;SDS011;1320;48.128;11.592;2022-07-29T00:47:20;9.80;;;4.97;;
2620;SDS011;1320;48.128;11.592;2022-07-29T00:49:46;11.40;;;5.13;;
2620;SDS011;1320;48.128;11.592;2022-07-29T00:52:12;10.70;;;4.20;;
2620;SDS011;1320;48.128;11.592;2022-07-29T00:54:38;10.00;;;4.30;;
2620;SDS011;1320;48.128;11.592;2022-07-29T00:57:06;9.13;;;4.50;;
2620;SDS011;1320;48.128;11.592;2022-07-29T00:59:33;9.30;;;4.10;;
2620;SDS011;1320;48.128;11.592;2022-07-29T01:01:59;10.20;;;4.07;;
2620;SDS011;1320;48.128;11.592;2022-07-29T01:04:24;8.90;;;3.77;;
2620;SDS011;1320;48.128;11.592;2022-07-29T01:06:51;9.07;;;4.50;;
2620;SDS011;1320;48.128;11.592;2022-07-29T01:09:18;9.40;;;4.40;;
2620;SDS011;1320;48.128;11.592;2022-07-29T01:11:44;9.60;;;4.30;;
2620;SDS011;1320;48.128;11.592;2022-07-29T01:14:12;9.43;;;4.43;;
2620;SDS011;1320;48.128;11.592;2022-07-29T01:16:42;11.80;;;4.87;;
2620;SDS011;1320;48.128;11.592;2022-07-29T01:21:59;9.77;;;5.63;;
2620;SDS011;1320;48.128;11.592;2022-07-29T01:24:45;9.20;;;4.37;;
2620;SDS011;1320;48.128;11.592;2022-07-29T01:30:21;9.53;;;4.80;;
2620;SDS011;1320;48.128;11.592;2022-07-29T01:32:50;9.40;;;5.23;;
2620;SDS011;1320;48.128;11.592;2022-07-29T01:35:23;8.33;;;3.67;;
2620;SDS011;1320;48.128;11.592;2022-07-29T01:40:36;10.03;;;4.03;;
2620;SDS011;1320;48.128;11.592;2022-07-29T01:43:09;11.07;;;5.50;;
2620;SDS011;1320;48.128;11.592;2022-07-29T01:45:56;10.00;;;4.73;;
2620;SDS011;1320;48.128;11.592;2022-07-29T01:48:47;8.97;;;4.50;;
2620;SDS011;1320;48.128;11.592;2022-07-29T01:51:19;9.53;;;4.80;;
2620;SDS011;1320;48.128;11.592;2022-07-29T01:53:55;8.90;;;4.40;;
2620;SDS011;1320;48.128;11.592;2022-07-29T01:56:39;9.70;;;4.83;;
2620;SDS011;1320;48.128;11.592;2022-07-29T01:59:07;9.10;;;4.23;;
2620;SDS011;1320;48.128;11.592;2022-07-29T02:01:34;9.07;;;5.50;;
2620;SDS011;1320;48.128;11.592;2022-07-29T02:04:04;9.40;;;4.43;;
2620;SDS011;1320;48.128;11.592;2022-07-29T02:06:33;8.70;;;3.33;;
2620;SDS011;1320;48.128;11.592;2022-07-29T02:09:02;11.60;;;4.27;;
2620;SDS011;1320;48.128;11.592;2022-07-29T02:11:29;10.57;;;3.67;;
2620;SDS011;1320;48.128;11.592;2022-07-29T02:13:57;9.13;;;3.60;;
2620;SDS011;1320;48.128;11.592;2022-07-29T02:16:26;8.27;;;3.30;;
2620;SDS011;1320;48.128;11.592;2022-07-29T02:18:55;9.20;;;3.67;;
2620;SDS011;1320;48.128;11.592;2022-07-29T02:21:24;9.20;;;4.60;;
2620;SDS011;1320;48.128;11.592;2022-07-29T02:23:53;9.90;;;4.13;;
2620;SDS011;1320;48.128;11.592;2022-07-29T02:26:21;10.37;;;4.20;;
2620;SDS011;1320;48.128;11.592;2022-07-29T02:28:49;9.87;;;4.53;;
2620;SDS011;1320;48.128;11.592;2022-07-29T02:31:20;10.10;;;4.87;;
2620;SDS011;1320;48.128;11.592;2022-07-29T02:33:49;9.87;;;4.40;;
2620;SDS011;1320;48.128;11.592;2022-07-29T02:36:16;9.33;;;3.63;;
2620;SDS011;1320;48.128;11.592;2022-07-29T02:38:45;9.77;;;4.20;;
2620;SDS011;1320;48.128;11.592;2022-07-29T02:42:03;10.03;;;5.80;;
2620;SDS011;1320;48.128;11.592;2022-07-29T02:44:21;9.73;;;4.13;;
2620;SDS011;1320;48.128;11.592;2022-07-29T02:46:53;8.77;;;3.43;;
2620;SDS011;1320;48.128;11.592;2022-07-29T02:52:32;9.30;;;3.37;;
2620;SDS011;1320;48.128;11.592;2022-07-29T02:55:11;9.63;;;3.80;;
2620;SDS011;1320;48.128;11.592;2022-07-29T02:57:57;9.23;;;4.37;;
2620;SDS011;1320;48.128;11.592;2022-07-29T03:00:28;9.27;;;3.93;;
2620;SDS011;1320;48.128;11.592;2022-07-29T03:02:56;8.93;;;4.23;;
2620;SDS011;1320;48.128;11.592;2022-07-29T03:05:24;9.60;;;4.40;;
2620;SDS011;1320;48.128;11.592;2022-07-29T03:07:55;9.80;;;3.93;;
2620;SDS011;1320;48.128;11.592;2022-07-29T03:10:23;9.70;;;4.50;;
2620;SDS011;1320;48.128;11.592;2022-07-29T03:12:50;9.20;;;3.87;;
2620;SDS011;1320;48.128;11.592;2022-07-29T03:15:17;11.30;;;3.87;;
2620;SDS011;1320;48.128;11.592;2022-07-29T03:17:43;9.50;;;4.30;;
2620;SDS011;1320;48.128;11.592;2022-07-29T03:20:10;10.47;;;4.10;;
2620;SDS011;1320;48.128;11.592;2022-07-29T03:22:40;10.00;;;4.23;;
2620;SDS011;1320;48.128;11.592;2022-07-29T03:25:15;9.50;;;3.70;;
2620;SDS011;1320;48.128;11.592;2022-07-29T03:27:43;10.90;;;5.23;;
2620;SDS011;1320;48.128;11.592;2022-07-29T03:30:09;8.77;;;3.20;;
2620;SDS011;1320;48.128;11.592;2022-07-29T03:32:36;9.47;;;3.07;;
2620;SDS011;1320;48.128;11.592;2022-07-29T03:35:02;11.53;;;4.13;;
2620;SDS011;1320;48.128;11.592;2022-07-29T03:37:29;9.40;;;4.93;;
2620;SDS011;1320;48.128;11.592;2022-07-29T03:39:58;11.63;;;4.40;;
2620;SDS011;1320;48.128;11.592;2022-07-29T03:42:27;10.20;;;3.90;;
2620;SDS011;1320;48.128;11.592;2022-07-29T03:44:59;8.63;;;3.70;;
2620;SDS011;1320;48.128;11.592;2022-07-29T03:47:28;10.80;;;4.90;;
2620;SDS011;1320;48.128;11.592;2022-07-29T03:49:56;10.37;;;3.80;;
2620;SDS011;1320;48.128;11.592;2022-07-29T03:52:27;9.53;;;3.67;;
2620;SDS011;1320;48.128;11.592;2022-07-29T03:54:53;9.33;;;4.27;;
2620;SDS011;1320;48.128;11.592;2022-07-29T03:57:20;9.60;;;3.37;;
2620;SDS011;1320;48.128;11.592;2022-07-29T03:59:51;9.93;;;4.33;;
2620;SDS011;1320;48.128;11.592;2022-07-29T04:02:17;10.30;;;4.47;;
2620;SDS011;1320;48.128;11.592;2022-07-29T04:04:43;9.83;;;4.27;;
2620;SDS011;1320;48.128;11.592;2022-07-29T04:07:12;9.07;;;3.20;;
2620;SDS011;1320;48.128;11.592;2022-07-29T04:09:38;10.20;;;4.07;;
2620;SDS011;1320;48.128;11.592;2022-07-29T04:12:04;10.27;;;3.97;;
2620;SDS011;1320;48.128;11.592;2022-07-29T04:14:31;10.50;;;4.27;;
2620;SDS011;1320;48.128;11.592;2022-07-29T04:16:57;9.73;;;5.23;;
2620;SDS011;1320;48.128;11.592;2022-07-29T04:19:23;9.23;;;4.57;;
2620;SDS011;1320;48.128;11.592;2022-07-29T04:21:49;9.80;;;4.70;;
2620;SDS011;1320;48.128;11.592;2022-07-29T04:24:14;9.30;;;4.53;;
2620;SDS011;1320;48.128;11.592;2022-07-29T04:26:40;9.77;;;4.20;;
2620;SDS011;1320;48.128;11.592;2022-07-29T04:29:07;9.60;;;3.80;;
2620;SDS011;1320;48.128;11.592;2022-07-29T04:31:32;10.20;;;5.53;;
2620;SDS011;1320;48.128;11.592;2022-07-29T04:33:58;9.53;;;4.60;;
2620;SDS011;1320;48.128;11.592;2022-07-29T04:36:23;10.47;;;4.40;;
2620;SDS011;1320;48.128;11.592;2022-07-29T04:38:49;9.30;;;4.00;;
2620;SDS011;1320;48.128;11.592;2022-07-29T04:41:15;8.90;;;4.43;;
2620;SDS011;1320;48.128;11.592;2022-07-29T04:43:40;13.90;;;4.60;;
2620;SDS011;1320;48.128;11.592;2022-07-29T04:46:06;9.00;;;4.30;;
2620;SDS011;1320;48.128;11.592;2022-07-29T04:48:32;9.30;;;4.37;;
2620;SDS011;1320;48.128;11.592;2022-07-29T04:50:58;9.10;;;4.47;;
2620;SDS011;1320;48.128;11.592;2022-07-29T04:53:24;9.43;;;3.80;;
2620;SDS011;1320;48.128;11.592;2022-07-29T04:55:50;8.83;;;3.77;;
2620;SDS011;1320;48.128;11.592;2022-07-29T04:58:16;9.17;;;3.83;;
2620;SDS011;1320;48.128;11.592;2022-07-29T05:00:42;11.70;;;4.40;;
2620;SDS011;1320;48.128;11.592;2022-07-29T05:03:07;9.50;;;5.93;;
2620;SDS011;1320;48.128;11.592;2022-07-29T05:05:33;9.40;;;4.47;;
2620;SDS011;1320;48.128;11.592;2022-07-29T05:07:59;8.73;;;4.43;;
2620;SDS011;1320;48.128;11.592;2022-07-29T05:10:24;9.30;;;4.90;;
2620;SDS011;1320;48.128;11.592;2022-07-29T05:12:50;10.80;;;4.80;;
2620;SDS011;1320;48.128;11.592;2022-07-29T05:15:16;9.50;;;4.63;;
2620;SDS011;1320;48.128;11.592;2022-07-29T05:17:42;9.50;;;5.80;;
2620;SDS011;1320;48.128;11.592;2022-07-29T05:20:09;10.00;;;5.60;;
2620;SDS011;1320;48.128;11.592;2022-07-29T05:22:34;11.10;;;4.80;;
2620;SDS011;1320;48.128;11.592;2022-07-29T05:25:00;11.13;;;5.57;;
2620;SDS011;1320;48.128;11.592;2022-07-29T05:27:27;10.90;;;5.17;;
2620;SDS011;1320;48.128;11.592;2022-07-29T05:29:52;10.17;;;5.10;;
2620;SDS011;1320;48.128;11.592;2022-07-29T05:32:18;14.40;;;4.53;;
2620;SDS011;1320;48.128;11.592;2022-07-29T05:34:44;9.13;;;5.43;;
2620;SDS011;1320;48.128;11.592;2022-07-29T05:37:09;11.40;;;6.47;;
2620;SDS011;1320;48.128;11.592;2022-07-29T05:39:35;10.90;;;5.53;;
2620;SDS011;1320;48.128;11.592;2022-07-29T05:42:01;12.90;;;3.80;;
2620;SDS011;1320;48.128;11.592;2022-07-29T05:44:27;9.90;;;5.13;;
2620;SDS011;1320;48.128;11.592;2022-07-29T05:46:53;10.37;;;4.73;;
2620;SDS011;1320;48.128;11.592;2022-07-29T05:49:19;10.37;;;5.03;;
2620;SDS011;1320;48.128;11.592;2022-07-29T05:51:44;12.30;;;4.97;;
2620;SDS011;1320;48.128;11.592;2022-07-29T05:54:10;9.80;;;4.50;;
2620;SDS011;1320;48.128;11.592;2022-07-29T05:56:36;10.00;;;5.77;;
2620;SDS011;1320;48.128;11.592;2022-07-29T05:59:02;11.03;;;5.87;;
2620;SDS011;1320;48.128;11.592;2022-07-29T06:01:28;11.60;;;5.00;;
2620;SDS011;1320;48.128;11.592;2022-07-29T06:03:53;9.97;;;4.50;;
2620;SDS011;1320;48.128;11.592;2022-07-29T06:06:19;11.40;;;4.27;;
2620;SDS011;1320;48.128;11.592;2022-07-29T06:08:45;9.97;;;4.80;;
2620;SDS011;1320;48.128;11.592;2022-07-29T06:11:10;10.07;;;4.30;;
2620;SDS011;1320;48.128;11.592;2022-07-29T06:13:36;10.37;;;4.93;;
2620;SDS011;1320;48.128;11.592;2022-07-29T06:16:02;10.40;;;6.40;;
2620;SDS011;1320;48.128;11.592;2022-07-29T06:18:28;11.43;;;5.47;;
2620;SDS011;1320;48.128;11.592;2022-07-29T06:20:53;11.63;;;4.73;;
2620;SDS011;1320;48.128;11.592;2022-07-29T06:23:19;9.17;;;4.23;;
2620;SDS011;1320;48.128;11.592;2022-07-29T06:25:45;9.67;;;4.70;;
2620;SDS011;1320;48.128;11.592;2022-07-29T06:28:11;10.07;;;6.07;;
2620;SDS011;1320;48.128;11.592;2022-07-29T06:30:37;10.17;;;4.87;;
2620;SDS011;1320;48.128;11.592;2022-07-29T06:33:04;10.63;;;5.90;;
2620;SDS011;1320;48.128;11.592;2022-07-29T06:35:30;10.00;;;4.53;;
2620;SDS011;1320;48.128;11.592;2022-07-29T06:37:58;10.20;;;5.90;;
2620;SDS011;1320;48.128;11.592;2022-07-29T06:40:23;11.73;;;5.90;;
2620;SDS011;1320;48.128;11.592;2022-07-29T06:43:08;10.20;;;5.13;;
2620;SDS011;1320;48.128;11.592;2022-07-29T06:45:33;11.37;;;5.50;;
2620;SDS011;1320;48.128;11.592;2022-07-29T06:47:59;9.07;;;4.40;;
2620;SDS011;1320;48.128;11.592;2022-07-29T06:50:25;10.20;;;5.70;;
2620;SDS011;1320;48.128;11.592;2022-07-29T06:52:51;11.00;;;5.30;;
2620;SDS011;1320;48.128;11.592;2022-07-29T06:55:17;9.80;;;5.73;;
2620;SDS011;1320;48.128;11.592;2022-07-29T06:57:44;11.20;;;4.87;;
2620;SDS011;1320;48.128;11.592;2022-07-29T07:00:10;9.50;;;4.77;;
2620;SDS011;1320;48.128;11.592;2022-07-29T07:02:36;10.67;;;5.30;;
2620;SDS011;1320;48.128;11.592;2022-07-29T07:05:02;9.57;;;5.20;;
2620;SDS011;1320;48.128;11.592;2022-07-29T07:07:28;10.20;;;4.90;;
2620;SDS011;1320;48.128;11.592;2022-07-29T07:09:53;11.70;;;5.20;;
2620;SDS011;1320;48.128;11.592;2022-07-29T07:12:19;10.80;;;5.50;;
2620;SDS011;1320;48.128;11.592;2022-07-29T07:14:45;10.10;;;4.80;;
2620;SDS011;1320;48.128;11.592;2022-07-29T07:17:10;9.87;;;6.00;;
2620;SDS011;1320;48.128;11.592;2022-07-29T07:19:36;9.70;;;5.23;;
2620;SDS011;1320;48.128;11.592;2022-07-29T07:22:01;9.80;;;5.83;;
2620;SDS011;1320;48.128;11.592;2022-07-29T07:24:27;10.50;;;6.13;;
2620;SDS011;1320;48.128;11.592;2022-07-29T07:26:53;10.20;;;6.20;;
2620;SDS011;1320;48.128;11.592;2022-07-29T07:29:18;9.07;;;5.37;;
2620;SDS011;1320;48.128;11.592;2022-07-29T07:31:44;9.40;;;6.03;;
2620;SDS011;1320;48.128;11.592;2022-07-29T07:34:10;9.73;;;5.03;;
2620;SDS011;1320;48.128;11.592;2022-07-29T07:36:36;10.97;;;8.10;;
2620;SDS011;1320;48.128;11.592;2022-07-29T07:39:02;11.40;;;6.87;;
2620;SDS011;1320;48.128;11.592;2022-07-29T07:41:28;11.33;;;6.83;;
2620;SDS011;1320;48.128;11.592;2022-07-29T07:43:54;9.37;;;5.73;;
2620;SDS011;1320;48.128;11.592;2022-07-29T07:46:19;9.00;;;4.57;;
2620;SDS011;1320;48.128;11.592;2022-07-29T07:48:45;9.27;;;5.67;;
2620;SDS011;1320;48.128;11.592;2022-07-29T07:51:11;9.73;;;5.97;;
2620;SDS011;1320;48.128;11.592;2022-07-29T07:53:36;10.07;;;5.00;;
2620;SDS011;1320;48.128;11.592;2022-07-29T07:56:02;9.90;;;5.70;;
2620;SDS011;1320;48.128;11.592;2022-07-29T07:58:29;9.27;;;4.73;;
2620;SDS011;1320;48.128;11.592;2022-07-29T08:00:55;12.73;;;7.20;;
2620;SDS011;1320;48.128;11.592;2022-07-29T08:03:21;10.30;;;6.00;;
2620;SDS011;1320;48.128;11.592;2022-07-29T08:05:46;39.80;;;37.40;;
2620;SDS011;1320;48.128;11.592;2022-07-29T08:08:13;11.07;;;8.30;;
2620;SDS011;1320;48.128;11.592;2022-07-29T08:10:38;10.90;;;8.80;;
2620;SDS011;1320;48.128;11.592;2022-07-29T08:13:24;10.97;;;8.60;;
2620;SDS011;1320;48.128;11.592;2022-07-29T08:15:56;10.23;;;6.90;;
2620;SDS011;1320;48.128;11.592;2022-07-29T08:18:36;10.13;;;6.70;;
2620;SDS011;1320;48.128;11.592;2022-07-29T08:21:03;11.50;;;10.30;;
2620;SDS011;1320;48.128;11.592;2022-07-29T08:23:29;10.40;;;8.00;;
2620;SDS011;1320;48.128;11.592;2022-07-29T08:26:13;10.37;;;8.57;;
2620;SDS011;1320;48.128;11.592;2022-07-29T08:28:39;12.67;;;10.00;;
2620;SDS011;1320;48.128;11.592;2022-07-29T08:31:06;14.63;;;13.33;;
2620;SDS011;1320;48.128;11.592;2022-07-29T08:33:32;13.63;;;12.37;;
2620;SDS011;1320;48.128;11.592;2022-07-29T08:35:58;19.07;;;17.67;;
2620;SDS011;1320;48.128;11.592;2022-07-29T08:38:24;22.97;;;21.37;;
2620;SDS011;1320;48.128;11.592;2022-07-29T08:40:51;17.87;;;16.17;;
2620;SDS011;1320;48.128;11.592;2022-07-29T08:43:17;23.13;;;21.53;;
2620;SDS011;1320;48.128;11.592;2022-07-29T08:45:50;26.07;;;24.47;;
2620;SDS011;1320;48.128;11.592;2022-07-29T08:48:20;28.17;;;26.37;;
2620;SDS011;1320;48.128;11.592;2022-07-29T08:50:48;27.80;;;25.80;;
2620;SDS011;1320;48.128;11.592;2022-07-29T08:53:17;25.33;;;23.80;;
2620;SDS011;1320;48.128;11.592;2022-07-29T08:55:44;27.87;;;26.07;;
2620;SDS011;1320;48.128;11.592;2022-07-29T08:58:14;25.23;;;23.53;;
2620;SDS011;1320;48.128;11.592;2022-07-29T09:00:45;17.67;;;16.27;;
2620;SDS011;1320;48.128;11.592;2022-07-29T09:03:17;15.33;;;14.00;;
2620;SDS011;1320;48.128;11.592;2022-07-29T09:05:45;16.97;;;15.53;;
2620;SDS011;1320;48.128;11.592;2022-07-29T09:08:11;13.57;;;10.87;;
2620;SDS011;1320;48.128;11.592;2022-07-29T09:10:38;12.17;;;10.97;;
2620;SDS011;1320;48.128;11.592;2022-07-29T09:13:04;14.73;;;13.53;;
2620;SDS011;1320;48.128;11.592;2022-07-29T09:15:30;14.90;;;13.57;;
2620;SDS011;1320;48.128;11.592;2022-07-29T09:17:56;13.60;;;10.10;;
2620;SDS011;1320;48.128;11.592;2022-07-29T09:20:24;15.37;;;14.07;;
2620;SDS011;1320;48.128;11.592;2022-07-29T09:22:50;16.30;;;14.93;;
2620;SDS011;1320;48.128;11.592;2022-07-29T09:25:34;19.23;;;17.43;;
2620;SDS011;1320;48.128;11.592;2022-07-29T09:30:52;21.13;;;19.37;;
2620;SDS011;1320;48.128;11.592;2022-07-29T09:33:23;24.27;;;22.57;;
2620;SDS011;1320;48.128;11.592;2022-07-29T09:36:06;21.10;;;19.50;;
2620;SDS011;1320;48.128;11.592;2022-07-29T09:38:34;21.30;;;19.87;;
2620;SDS011;1320;48.128;11.592;2022-07-29T09:41:03;23.23;;;21.57;;
2620;SDS011;1320;48.128;11.592;2022-07-29T09:43:29;20.43;;;18.77;;
2620;SDS011;1320;48.128;11.592;2022-07-29T09:45:55;20.90;;;19.33;;
2620;SDS011;1320;48.128;11.592;2022-07-29T09:48:37;22.83;;;21.20;;
2620;SDS011;1320;48.128;11.592;2022-07-29T09:51:02;21.77;;;20.07;;
2620;SDS011;1320;48.128;11.592;2022-07-29T09:55:58;14.00;;;12.60;;
2620;SDS011;1320;48.128;11.592;2022-07-29T09:58:24;19.13;;;17.60;;
2620;SDS011;1320;48.128;11.592;2022-07-29T10:00:50;15.33;;;13.87;;
2620;SDS011;1320;48.128;11.592;2022-07-29T10:03:17;13.57;;;12.17;;
2620;SDS011;1320;48.128;11.592;2022-07-29T10:05:43;14.17;;;12.93;;
2620;SDS011;1320;48.128;11.592;2022-07-29T10:08:10;12.30;;;10.83;;
2620;SDS011;1320;48.128;11.592;2022-07-29T10:10:40;14.63;;;13.10;;
2620;SDS011;1320;48.128;11.592;2022-07-29T10:13:09;12.13;;;10.93;;
2620;SDS011;1320;48.128;11.592;2022-07-29T10:15:37;14.73;;;9.37;;
2620;SDS011;1320;48.128;11.592;2022-07-29T10:18:06;14.03;;;12.73;;
2620;SDS011;1320;48.128;11.592;2022-07-29T10:20:33;11.17;;;9.20;;
2620;SDS011;1320;48.128;11.592;2022-07-29T10:23:00;10.30;;;8.70;;
2620;SDS011;1320;48.128;11.592;2022-07-29T10:25:26;12.10;;;10.23;;
2620;SDS011;1320;48.128;11.592;2022-07-29T10:27:52;11.87;;;9.57;;
2620;SDS011;1320;48.128;11.592;2022-07-29T10:30:19;10.83;;;9.03;;
2620;SDS011;1320;48.128;11.592;2022-07-29T10:43:47;12.07;;;8.43;;
2620;SDS011;1320;48.128;11.592;2022-07-29T10:46:13;10.20;;;7.00;;
2620;SDS011;1320;48.128;11.592;2022-07-29T10:49:13;11.00;;;9.00;;
2620;SDS011;1320;48.128;11.592;2022-07-29T11:10:45;14.80;;;13.40;;
2620;SDS011;1320;48.128;11.592;2022-07-29T11:13:10;15.43;;;14.10;;
2620;SDS011;1320;48.128;11.592;2022-07-29T11:15:52;16.40;;;14.80;;
2620;SDS011;1320;48.128;11.592;2022-07-29T11:18:19;15.83;;;14.50;;
2620;SDS011;1320;48.128;11.592;2022-07-29T11:20:45;15.40;;;14.03;;
2620;SDS011;1320;48.128;11.592;2022-07-29T11:23:24;18.33;;;16.97;;
2620;SDS011;1320;48.128;11.592;2022-07-29T11:31:16;18.27;;;16.77;;
2620;SDS011;1320;48.128;11.592;2022-07-29T11:34:14;16.97;;;15.60;;
2620;SDS011;1320;48.128;11.592;2022-07-29T11:37:26;16.87;;;15.27;;
2620;SDS011;1320;48.128;11.592;2022-07-29T11:39:33;13.80;;;12.60;;
2620;SDS011;1320;48.128;11.592;2022-07-29T11:47:30;17.57;;;15.87;;
2620;SDS011;1320;48.128;11.592;2022-07-29T11:49:57;17.47;;;16.07;;
2620;SDS011;1320;48.128;11.592;2022-07-29T11:52:24;16.90;;;15.60;;
2620;SDS011;1320;48.128;11.592;2022-07-29T11:55:18;16.20;;;14.90;;
2620;SDS011;1320;48.128;11.592;2022-07-29T12:00:19;19.43;;;17.63;;
2620;SDS011;1320;48.128;11.592;2022-07-29T12:02:48;16.60;;;15.17;;
2620;SDS011;1320;48.128;11.592;2022-07-29T12:05:14;15.17;;;13.77;;
2620;SDS011;1320;48.128;11.592;2022-07-29T12:07:40;16.73;;;15.00;;
2620;SDS011;1320;48.128;11.592;2022-07-29T12:10:06;19.70;;;18.10;;
2620;SDS011;1320;48.128;11.592;2022-07-29T12:12:33;16.40;;;15.10;;
2620;SDS011;1320;48.128;11.592;2022-07-29T12:15:15;16.07;;;14.63;;
2620;SDS011;1320;48.128;11.592;2022-07-29T12:17:46;14.70;;;13.23;;
2620;SDS011;1320;48.128;11.592;2022-07-29T12:20:12;17.60;;;16.20;;
2620;SDS011;1320;48.128;11.592;2022-07-29T12:22:39;18.57;;;17.00;;
2620;SDS011;1320;48.128;11.592;2022-07-29T12:25:08;17.80;;;15.77;;
2620;SDS011;1320;48.128;11.592;2022-07-29T12:27:35;17.13;;;15.73;;
2620;SDS011;1320;48.128;11.592;2022-07-29T12:30:04;20.10;;;18.50;;
2620;SDS011;1320;48.128;11.592;2022-07-29T12:32:35;16.10;;;14.77;;
2620;SDS011;1320;48.128;11.592;2022-07-29T12:35:16;16.53;;;15.23;;
2620;SDS011;1320;48.128;11.592;2022-07-29T12:37:47;15.57;;;13.90;;
2620;SDS011;1320;48.128;11.592;2022-07-29T12:40:15;15.97;;;14.50;;
2620;SDS011;1320;48.128;11.592;2022-07-29T12:43:04;15.23;;;13.73;;
2620;SDS011;1320;48.128;11.592;2022-07-29T12:45:37;15.40;;;14.20;;
2620;SDS011;1320;48.128;11.592;2022-07-29T12:48:04;17.00;;;15.50;;
2620;SDS011;1320;48.128;11.592;2022-07-29T12:50:33;16.23;;;14.83;;
2620;SDS011;1320;48.128;11.592;2022-07-29T12:53:10;17.57;;;13.90;;
2620;SDS011;1320;48.128;11.592;2022-07-29T12:55:44;18.03;;;16.27;;
2620;SDS011;1320;48.128;11.592;2022-07-29T13:01:09;14.73;;;13.33;;
2620;SDS011;1320;48.128;11.592;2022-07-29T13:11:32;11.07;;;9.70;;
2620;SDS011;1320;48.128;11.592;2022-07-29T13:14:00;12.17;;;10.97;;
2620;SDS011;1320;48.128;11.592;2022-07-29T13:16:26;16.83;;;15.23;;
2620;SDS011;1320;48.128;11.592;2022-07-29T13:19:05;13.67;;;12.27;;
2620;SDS011;1320;48.128;11.592;2022-07-29T13:21:32;11.93;;;10.53;;
2620;SDS011;1320;48.128;11.592;2022-07-29T13:23:58;11.93;;;10.57;;
2620;SDS011;1320;48.128;11.592;2022-07-29T13:26:24;15.23;;;14.03;;
2620;SDS011;1320;48.128;11.592;2022-07-29T13:28:50;13.87;;;12.57;;
2620;SDS011;1320;48.128;11.592;2022-07-29T13:31:16;12.00;;;10.70;;
2620;SDS011;1320;48.128;11.592;2022-07-29T13:33:41;11.47;;;10.03;;
2620;SDS011;1320;48.128;11.592;2022-07-29T13:36:07;12.97;;;10.03;;
2620;SDS011;1320;48.128;11.592;2022-07-29T13:38:33;10.87;;;8.77;;
2620;SDS011;1320;48.128;11.592;2022-07-29T13:40:58;11.90;;;10.63;;
2620;SDS011;1320;48.128;11.592;2022-07-29T13:43:25;13.43;;;11.10;;
2620;SDS011;1320;48.128;11.592;2022-07-29T13:45:51;12.13;;;9.27;;
2620;SDS011;1320;48.128;11.592;2022-07-29T13:48:16;11.50;;;10.03;;
2620;SDS011;1320;48.128;11.592;2022-07-29T13:50:42;12.70;;;11.40;;
2620;SDS011;1320;48.128;11.592;2022-07-29T13:53:08;10.67;;;7.97;;
2620;SDS011;1320;48.128;11.592;2022-07-29T13:55:34;13.57;;;11.37;;
2620;SDS011;1320;48.128;11.592;2022-07-29T13:57:59;10.87;;;9.23;;
2620;SDS011;1320;48.128;11.592;2022-07-29T14:00:25;12.60;;;9.70;;
2620;SDS011;1320;48.128;11.592;2022-07-29T14:02:51;14.23;;;8.73;;
2620;SDS011;1320;48.128;11.592;2022-07-29T14:05:17;11.87;;;9.73;;
2620;SDS011;1320;48.128;11.592;2022-07-29T14:07:43;11.90;;;10.70;;
2620;SDS011;1320;48.128;11.592;2022-07-29T14:10:08;10.60;;;7.03;;
2620;SDS011;1320;48.128;11.592;2022-07-29T14:12:34;13.70;;;9.03;;
2620;SDS011;1320;48.128;11.592;2022-07-29T14:15:00;12.97;;;9.40;;
2620;SDS011;1320;48.128;11.592;2022-07-29T14:17:26;13.93;;;10.73;;
2620;SDS011;1320;48.128;11.592;2022-07-29T14:19:52;14.60;;;8.87;;
2620;SDS011;1320;48.128;11.592;2022-07-29T14:22:17;11.87;;;10.63;;
2620;SDS011;1320;48.128;11.592;2022-07-29T14:24:44;10.80;;;9.77;;
2620;SDS011;1320;48.128;11.592;2022-07-29T14:27:10;14.00;;;11.93;;
2620;SDS011;1320;48.128;11.592;2022-07-29T14:29:36;12.80;;;9.00;;
2620;SDS011;1320;48.128;11.592;2022-07-29T14:32:02;11.63;;;10.07;;
2620;SDS011;1320;48.128;11.592;2022-07-29T14:34:28;11.43;;;10.27;;
2620;SDS011;1320;48.128;11.592;2022-07-29T14:36:54;11.00;;;9.20;;
2620;SDS011;1320;48.128;11.592;2022-07-29T14:39:21;12.43;;;8.87;;
2620;SDS011;1320;48.128;11.592;2022-07-29T14:41:48;12.50;;;11.20;;
2620;SDS011;1320;48.128;11.592;2022-07-29T14:44:14;13.20;;;11.80;;
2620;SDS011;1320;48.128;11.592;2022-07-29T14:46:40;11.40;;;9.07;;
2620;SDS011;1320;48.128;11.592;2022-07-29T14:49:06;13.73;;;10.10;;
2620;SDS011;1320;48.128;11.592;2022-07-29T14:51:31;10.87;;;7.93;;
2620;SDS011;1320;48.128;11.592;2022-07-29T14:53:57;11.27;;;8.93;;
2620;SDS011;1320;48.128;11.592;2022-07-29T14:56:23;14.20;;;10.33;;
2620;SDS011;1320;48.128;11.592;2022-07-29T14:58:49;12.20;;;9.87;;
2620;SDS011;1320;48.128;11.592;2022-07-29T15:01:14;10.80;;;8.87;;
2620;SDS011;1320;48.128;11.592;2022-07-29T15:03:40;12.37;;;11.17;;
2620;SDS011;1320;48.128;11.592;2022-07-29T15:06:06;12.73;;;8.80;;
2620;SDS011;1320;48.128;11.592;2022-07-29T15:08:31;9.97;;;8.97;;
2620;SDS011;1320;48.128;11.592;2022-07-29T15:10:57;10.30;;;7.77;;
2620;SDS011;1320;48.128;11.592;2022-07-29T15:13:24;12.07;;;9.90;;
2620;SDS011;1320;48.128;11.592;2022-07-29T15:15:50;11.37;;;9.60;;
2620;SDS011;1320;48.128;11.592;2022-07-29T15:18:16;11.50;;;8.03;;
2620;SDS011;1320;48.128;11.592;2022-07-29T15:20:42;11.33;;;7.53;;
2620;SDS011;1320;48.128;11.592;2022-07-29T15:23:10;11.73;;;10.53;;
2620;SDS011;1320;48.128;11.592;2022-07-29T15:25:37;11.13;;;6.90;;
2620;SDS011;1320;48.128;11.592;2022-07-29T15:28:04;26.37;;;15.10;;
2620;SDS011;1320;48.128;11.592;2022-07-29T15:30:33;19.10;;;10.30;;
2620;SDS011;1320;48.128;11.592;2022-07-29T15:33:05;12.10;;;8.67;;
2620;SDS011;1320;48.128;11.592;2022-07-29T15:35:35;8.70;;;7.33;;
2620;SDS011;1320;48.128;11.592;2022-07-29T15:38:04;9.97;;;6.60;;
2620;SDS011;1320;48.128;11.592;2022-07-29T15:40:29;10.50;;;8.03;;
2620;SDS011;1320;48.128;11.592;2022-07-29T15:42:55;11.57;;;8.93;;
2620;SDS011;1320;48.128;11.592;2022-07-29T15:45:22;12.87;;;7.83;;
2620;SDS011;1320;48.128;11.592;2022-07-29T15:47:48;13.77;;;7.73;;
2620;SDS011;1320;48.128;11.592;2022-07-29T15:50:13;12.27;;;8.73;;
2620;SDS011;1320;48.128;11.592;2022-07-29T15:52:41;10.47;;;6.63;;
2620;SDS011;1320;48.128;11.592;2022-07-29T15:55:07;11.43;;;9.20;;
2620;SDS011;1320;48.128;11.592;2022-07-29T15:57:34;10.23;;;5.67;;
2620;SDS011;1320;48.128;11.592;2022-07-29T15:59:59;11.30;;;7.03;;
2620;SDS011;1320;48.128;11.592;2022-07-29T16:02:25;11.30;;;8.37;;
2620;SDS011;1320;48.128;11.592;2022-07-29T16:04:51;11.87;;;6.83;;